Terminal Aerodrome Forecast
Issued by NWS

Home | Current Version | Previous Version | Text Only | Print | Product List | Glossary On
Versions: 1 2 3 4 5 6 7 8 9 10 11 12 13
000
FTUS43 KAPX 211120
TAFTVC
TAF
KTVC 211120Z 2112/2212 VRB04KT P6SM BKN200
     FM211900 24007KT P6SM FEW050 BKN150
     FM212300 VRB04KT P6SM FEW050 BKN130
     FM220600 19004KT P6SM -SHRA OVC070
     FM220900 25005KT P6SM -SHRA OVC050
     FM221100 25005KT P6SM VCSH OVC015=

USA.gov is the U.S. government's official web portal to all federal, state and local government web resources and services.